Home > Products > Valid Products > MTR

000
SAUS43 KEAX 190953
MTRCDJ
METAR KCDJ 190952Z AUTO 00000KT M01/M03 A3029 RMK AO1 SLP270
T10061028





000
SAUS43 KEAX 190854
MTRCDJ
METAR KCDJ 190852Z AUTO 00000KT M01/M03 A3028 RMK AO1 SLP269
T10061028 55004





000
SAUS43 KEAX 190753
MTRCDJ
METAR KCDJ 190752Z AUTO 00000KT M01/M03 A3027 RMK AO1 SLP266
T10061028





000
SAUS43 KEAX 190654
MTRCDJ
METAR KCDJ 190652Z AUTO 00000KT M01/M03 A3029 RMK AO1 SLP270
T10061028





000
SAUS43 KEAX 190553
MTRCDJ
METAR KCDJ 190552Z AUTO 00000KT M01/M03 A3030 RMK AO1 SLP274
T10061028 11006 21006 400061028 51007





000
SAUS43 KEAX 190453
MTRCDJ
METAR KCDJ 190452Z AUTO 00000KT M01/M03 A3030 RMK AO1 SLP274
T10061028





000
SAUS43 KEAX 190353
MTRCDJ
METAR KCDJ 190352Z AUTO 00000KT M01/M03 A3028 RMK AO1 SLP271
T10061033





000
SAUS43 KEAX 190353
MTRCDJ
METAR KCDJ 190352Z AUTO 00000KT M01/M03 A3028 RMK AO1 SLP271
T10061033





000
SAUS43 KEAX 190253
MTRCDJ
METAR KCDJ 190252Z AUTO 00000KT M01/M03 A3028 RMK AO1 SLP269
T10061033 51008





000
SAUS43 KEAX 190153
MTRCDJ
METAR KCDJ 190152Z AUTO 00000KT M01/M03 A3027 RMK AO1 SLP268
T10061033





000
SAUS43 KEAX 190153
MTRCDJ
METAR KCDJ 190152Z AUTO 00000KT M01/M03 A3027 RMK AO1 SLP268
T10061033





000
SAUS43 KEAX 190053
MTRCDJ
METAR KCDJ 190052Z AUTO 04003KT M01/M03 A3027 RMK AO1 SLP265
T10061033





000
SAUS43 KEAX 182353
MTRCDJ
METAR KCDJ 182352Z AUTO 05003KT M01/M03 A3025 RMK AO1 SLP260
T10061028 10006 21011 53006





000
SAUS43 KEAX 182253
MTRCDJ
METAR KCDJ 182252Z AUTO 00000KT M01/M03 A3024 RMK AO1 SLP258
T10061033





000
SAUS43 KEAX 182153
MTRCDJ
METAR KCDJ 182152Z AUTO 03004KT 00/M03 A3024 RMK AO1 SLP255
T00001033





000
SAUS43 KEAX 182053
MTRCDJ
METAR KCDJ 182052Z AUTO 03005KT 00/M03 A3023 RMK AO1 SLP252
T00001033 56012





000
SAUS43 KEAX 181953
MTRCDJ
METAR KCDJ 181952Z AUTO 03003KT 00/M03 A3023 RMK AO1 SLP253
T00001028





000
SAUS43 KEAX 181853
MTRCDJ
METAR KCDJ 181852Z AUTO 09003KT M01/M03 A3025 RMK AO1 SLP258
T10111033





000
SAUS43 KEAX 181753
MTRCDJ
METAR KCDJ 181752Z AUTO 08004KT M01/M03 A3027 RMK AO1 SLP264 60007
T10111033 11011 21028 58005





000
SAUS43 KEAX 181653
MTRCDJ
METAR KCDJ 181652Z AUTO 07005KT M01/M04 A3029 RMK AO1 SLP273
T10111039





000
SAUS43 KEAX 181553
MTRCDJ
METAR KCDJ 181552Z AUTO 09005KT M02/M04 A3028 RMK AO1 SLP272 P0001
T10221044





000
SAUS43 KEAX 181453
MTRCDJ
METAR KCDJ 181452Z AUTO 10005KT M03/M04 A3028 RMK AO1 SLP272 P0001
60006 T10281044 53007





000
SAUS43 KEAX 181353
MTRCDJ
METAR KCDJ 181352Z AUTO 08004KT M03/M04 A3027 RMK AO1 SLP268 P0003
T10281044





000
SAUS43 KEAX 181353
MTRCDJ
METAR KCDJ 181352Z AUTO 08004KT M03/M04 A3027 RMK AO1 SLP268 P0003
T10281044





000
SAUS43 KEAX 181254
MTRCDJ
METAR KCDJ 181252Z AUTO 09005KT M03/M04 A3027 RMK AO1 SLP267 P0002
T10281044





000
SAUS43 KEAX 181254
MTRCDJ
METAR KCDJ 181252Z AUTO 09005KT M03/M04 A3027 RMK AO1 SLP267 P0002
T10281044





000
SAUS43 KEAX 181153
MTRCDJ
METAR KCDJ 181152Z AUTO VRB03KT M03/M04 A3026 RMK AO1 SLP264 P0006
60014 70014 T10281044 11006 21028 56006





000
SAUS43 KEAX 181053
MTRCDJ
METAR KCDJ 181052Z AUTO 11004KT M03/M04 A3026 RMK AO1 SLP264 P0005
T10281039





000
SAUS43 KEAX 181053
MTRCDJ
METAR KCDJ 181052Z AUTO 11004KT M03/M04 A3026 RMK AO1 SLP264 P0005
T10281039





000
SAUS43 KEAX 180953
MTRCDJ
METAR KCDJ 180952Z AUTO 00000KT M02/M04 A3027 RMK AO1 SLP267 P0003
T10221039





000
SAUS43 KEAX 180853
MTRCDJ
METAR KCDJ 180852Z AUTO 09004KT M01/M06 A3028 RMK AO1 SLP269
T10111061 55009





000
SAUS43 KEAX 180853
MTRCDJ
METAR KCDJ 180852Z AUTO 09004KT M01/M06 A3028 RMK AO1 SLP269
T10111061 55009





000
SAUS43 KEAX 180753
MTRCDJ
METAR KCDJ 180752Z AUTO 07003KT M01/M06 A3027 RMK AO1 SLP267
T10111056





000
SAUS43 KEAX 180753
MTRCDJ
METAR KCDJ 180752Z AUTO 07003KT M01/M06 A3027 RMK AO1 SLP267
T10111056





000
SAUS43 KEAX 180654
MTRCDJ
METAR KCDJ 180652Z AUTO 09003KT M01/M06 A3030 RMK AO1 SLP275
T10111056





000
SAUS43 KEAX 180553
MTRCDJ
METAR KCDJ 180552Z AUTO 00000KT M01/M06 A3031 RMK AO1 PRESRR SLP279
T10061056 11006 21011 410061061 55002





000
SAUS43 KEAX 180453
MTRCDJ
METAR KCDJ 180452Z AUTO 03005KT M01/M06 A3028 RMK AO1 SLP271
T10111056





000
SAUS43 KEAX 180353
MTRCDJ
METAR KCDJ 180352Z AUTO 03004KT M01/M06 A3029 RMK AO1 SLP274
T10111061





000
SAUS43 KEAX 180353
MTRCDJ
METAR KCDJ 180352Z AUTO 03004KT M01/M06 A3029 RMK AO1 SLP274
T10111061





000
SAUS43 KEAX 180253
MTRCDJ
METAR KCDJ 180252Z AUTO 00000KT M01/M06 A3031 RMK AO1 SLP282
T10111061 53007





000
SAUS43 KEAX 180153
MTRCDJ
METAR KCDJ 180152Z AUTO 05003KT M01/M06 A3029 RMK AO1 SLP275
T10111061





000
SAUS43 KEAX 180153
MTRCDJ
METAR KCDJ 180152Z AUTO 05003KT M01/M06 A3029 RMK AO1 SLP275
T10111061





000
SAUS43 KEAX 180053
MTRCDJ
METAR KCDJ 180052Z AUTO 00000KT M01/M06 A3029 RMK AO1 SLP276
T10111061





000
SAUS43 KEAX 172353
MTRCDJ
METAR KCDJ 172352Z AUTO 00000KT M01/M07 A3029 RMK AO1 SLP276
T10111067 11011 21033 51001





000
SAUS43 KEAX 172253
MTRCDJ
METAR KCDJ 172252Z AUTO 04004KT M01/M07 A3029 RMK AO1 SLP275
T10111067





000
SAUS43 KEAX 172153
MTRCDJ
METAR KCDJ 172152Z AUTO 04005KT M01/M06 A3029 RMK AO1 SLP276
T10111061





000
SAUS43 KEAX 172153
MTRCDJ
METAR KCDJ 172152Z AUTO 04005KT M01/M06 A3029 RMK AO1 SLP276
T10111061





000
SAUS43 KEAX 172053
MTRCDJ
METAR KCDJ 172052Z AUTO 02004KT M02/M06 A3029 RMK AO1 SLP275
T10171061 58015





000
SAUS43 KEAX 171953
MTRCDJ
METAR KCDJ 171952Z AUTO 32003KT M02/M07 A3032 RMK AO1 SLP284
T10221067





000
SAUS43 KEAX 171853
MTRCDJ
METAR KCDJ 171852Z AUTO 22003KT M03/M07 A3034 RMK AO1 SLP293
T10281067





000
SAUS43 KEAX 171753
MTRCDJ
METAR KCDJ 171752Z AUTO VRB03KT M03/M07 A3033 RMK AO1 SLP290
T10281072 11022 21056 58017





000
SAUS43 KEAX 171653
MTRCDJ
METAR KCDJ 171652Z AUTO 02004KT M04/M07 A3037 RMK AO1 SLP302
T10391072





000
SAUS43 KEAX 171553
MTRCDJ
METAR KCDJ 171552Z AUTO 01004KT M04/M08 A3037 RMK AO1 SLP304
T10441078





000
SAUS43 KEAX 171553
MTRCDJ
METAR KCDJ 171552Z AUTO 01004KT M04/M08 A3037 RMK AO1 SLP304
T10441078





000
SAUS43 KEAX 171453
MTRCDJ
METAR KCDJ 171452Z AUTO VRB04KT M05/M08 A3038 RMK AO1 SLP307
T10501078 53010





000
SAUS43 KEAX 171353
MTRCDJ
METAR KCDJ 171352Z AUTO 33003KT M06/M08 A3037 RMK AO1 SLP302
T10561083





000
SAUS43 KEAX 171253
MTRCDJ
METAR KCDJ 171252Z AUTO 35004KT M06/M09 A3036 RMK AO1 SLP299
T10561089





000
SAUS43 KEAX 171153
MTRCDJ
METAR KCDJ 171152Z AUTO VRB03KT M06/M09 A3035 RMK AO1 SLP297
T10561089 11039 21061 56003





000
SAUS43 KEAX 171053
MTRCDJ
METAR KCDJ 171052Z AUTO 33003KT M06/M09 A3036 RMK AO1 SLP299
T10561089





000
SAUS43 KEAX 170953
MTRCDJ
METAR KCDJ 170952Z AUTO 32003KT M06/M09 A3035 RMK AO1 SLP295
T10561089





000
SAUS43 KEAX 170953
MTRCDJ
METAR KCDJ 170952Z AUTO 32003KT M06/M09 A3035 RMK AO1 SLP295
T10561089





000
SAUS43 KEAX 170853
MTRCDJ
METAR KCDJ 170852Z AUTO 33005KT M05/M08 A3036 RMK AO1 SLP298
T10501083 53003





000
SAUS43 KEAX 170853
MTRCDJ
METAR KCDJ 170852Z AUTO 33005KT M05/M08 A3036 RMK AO1 SLP298
T10501083 53003





000
SAUS43 KEAX 170753
MTRCDJ
METAR KCDJ 170752Z AUTO 31007KT M04/M08 A3036 RMK AO1 SLP297
T10441078





000
SAUS43 KEAX 170753
MTRCDJ
METAR KCDJ 170752Z AUTO 31007KT M04/M08 A3036 RMK AO1 SLP297
T10441078





000
SAUS43 KEAX 170653
MTRCDJ
METAR KCDJ 170652Z AUTO 30007KT M04/M07 A3035 RMK AO1 SLP294
T10441072





000
SAUS43 KEAX 170553
MTRCDJ
METAR KCDJ 170552Z AUTO 29004KT M04/M07 A3035 RMK AO1 SLP294
T10391072 11011 21039 400281039 50004





000
SAUS43 KEAX 170453
MTRCDJ
METAR KCDJ 170452Z AUTO 29006KT M03/M07 A3035 RMK AO1 SLP295
T10331067





000
SAUS43 KEAX 170453
MTRCDJ
METAR KCDJ 170452Z AUTO 29006KT M03/M07 A3035 RMK AO1 SLP295
T10331067





000
SAUS43 KEAX 170353
MTRCDJ
METAR KCDJ 170352Z AUTO 31005KT M03/M07 A3035 RMK AO1 SLP293
T10281067





000
SAUS43 KEAX 170353
MTRCDJ
METAR KCDJ 170352Z AUTO 31005KT M03/M07 A3035 RMK AO1 SLP293
T10281067





000
SAUS43 KEAX 170253
MTRCDJ
METAR KCDJ 170252Z AUTO 00000KT M03/M07 A3034 RMK AO1 SLP290
T10281067 50007





000
SAUS43 KEAX 170153
MTRCDJ
METAR KCDJ 170152Z AUTO 30004KT M02/M06 A3034 RMK AO1 SLP290
T10171061





000
SAUS43 KEAX 170054
MTRCDJ
METAR KCDJ 170052Z AUTO 31007KT M01/M06 A3033 RMK AO1 SLP287
T10111061





000
SAUS43 KEAX 162353
MTRCDJ
METAR KCDJ 162352Z AUTO 31007KT M01/M06 A3032 RMK AO1 SLP281
T10111056 11006 21017 51017





000
SAUS43 KEAX 162253
MTRCDJ
METAR KCDJ 162252Z AUTO 31008KT M01/M06 A3030 RMK AO1 SLP275
T10111061





000
SAUS43 KEAX 162153
MTRCDJ
METAR KCDJ 162152Z AUTO 31009G18KT M01/M06 A3029 RMK AO1 SLP273
T10061056





000
SAUS43 KEAX 162053
MTRCDJ
METAR KCDJ 162052Z AUTO 32010G17KT M01/M06 A3026 RMK AO1 SLP263
T10061061 51011





000
SAUS43 KEAX 161953
MTRCDJ
METAR KCDJ 161952Z AUTO 31011G17KT M01/M06 A3025 RMK AO1 SLP259
T10111056





000
SAUS43 KEAX 161853
MTRCDJ
METAR KCDJ 161852Z AUTO 31013G17KT M01/M06 A3025 RMK AO1 SLP256
T10111056





000
SAUS43 KEAX 161753
MTRCDJ
METAR KCDJ 161752Z AUTO 31013G21KT M01/M06 A3023 RMK AO1 SLP249
T10111056 11006 21017 51021





000
SAUS43 KEAX 161653
MTRCDJ
METAR KCDJ 161652Z AUTO 30012G17KT M01/M06 A3022 RMK AO1 SLP246
T10111056





000
SAUS43 KEAX 161553
MTRCDJ
METAR KCDJ 161552Z AUTO 31011G18KT M01/M06 A3021 RMK AO1 SLP240
T10111056





000
SAUS43 KEAX 161553
MTRCDJ
METAR KCDJ 161552Z AUTO 31011G18KT M01/M06 A3021 RMK AO1 SLP240
T10111056





000
SAUS43 KEAX 161453
MTRCDJ
METAR KCDJ 161452Z AUTO 31015G25KT M02/M06 A3017 RMK AO1 SLP227
T10171056 53035





000
SAUS43 KEAX 161358
MTRCDJ
METAR KCDJ 161352Z AUTO 32010G18KT M01/M06 A3013 RMK AO1 PK WND
32026/1302 SLP213 T10111056





000
SAUS43 KEAX 161259
MTRCDJ
METAR KCDJ 161252Z AUTO 31015G20KT M01/M05 A3009 RMK AO1 PK WND
31028/1159 SLP200 T10111050





000
SAUS43 KEAX 161158
MTRCDJ
METAR KCDJ 161152Z AUTO 31012G20KT M01/M04 A3006 RMK AO1 SLP191
70001 T10061044 10033 21006 53035





000
SAUS43 KEAX 161059
MTRCDJ
METAR KCDJ 161052Z AUTO 31015G22KT M01/M04 A3002 RMK AO1 PK WND
30029/1021 SLP176 T10061039





    US Dept of Commerce
    National Oceanic and Atmospheric Administration
    National Weather Service
    1325 East West Highway
    Silver Spring, MD 20910
    Page Author: NWS Internet Services Team
Disclaimer
Information Quality
Credits
Glossary
Privacy Policy
Freedom of Information Act (FOIA)
About Us
Career Opportunities